createdAt,value
2023-09-01T12:04:31.395Z,29.03
2023-09-01T12:07:01.082Z,28.80
2023-09-01T12:09:31.765Z,28.74
2023-09-01T12:12:01.605Z,28.79
2023-09-01T12:14:29.814Z,29.52
2023-09-01T12:16:57.792Z,28.48
2023-09-01T12:19:26.243Z,29.24
2023-09-01T12:21:55.133Z,30.43
2023-09-01T12:24:24.222Z,28.88
2023-09-01T12:26:52.056Z,26.85
2023-09-01T12:29:20.368Z,28.90
2023-09-01T12:31:48.049Z,29.14
2023-09-01T12:34:15.870Z,28.45
2023-09-01T12:36:43.504Z,29.24
2023-09-01T12:39:11.078Z,29.69
2023-09-01T12:41:40.247Z,28.88
2023-09-01T12:44:07.944Z,28.16
2023-09-01T12:46:35.610Z,29.52
2023-09-01T12:49:03.176Z,30.67
2023-09-01T12:51:30.796Z,29.35
2023-09-01T12:53:58.367Z,29.90
2023-09-01T12:56:25.982Z,29.76
2023-09-01T12:58:55.111Z,30.52
2023-09-01T13:01:22.738Z,30.48
2023-09-01T13:03:50.361Z,27.96
2023-09-01T13:06:18.063Z,29.20
2023-09-01T13:08:45.628Z,30.12
2023-09-01T13:11:15.372Z,30.94
2023-09-01T13:13:43.261Z,30.50
2023-09-01T13:16:12.969Z,31.25
2023-09-01T13:18:41.202Z,29.95
2023-09-01T13:21:09.587Z,30.59
2023-09-01T13:23:37.189Z,29.42
2023-09-01T13:26:04.789Z,30.52
2023-09-01T13:28:33.819Z,29.65
2023-09-01T13:31:01.761Z,28.66
2023-09-01T13:33:30.893Z,29.45
2023-09-01T13:35:58.512Z,28.29
2023-09-01T13:38:26.135Z,27.61
2023-09-01T13:40:57.188Z,29.66
2023-09-01T13:43:24.869Z,28.31
2023-09-01T13:45:52.472Z,26.46
2023-09-01T13:48:20.059Z,27.90
2023-09-01T13:50:49.019Z,29.09
2023-09-01T13:53:17.057Z,30.40
2023-09-01T13:55:44.799Z,29.43
2023-09-01T13:58:12.336Z,28.00
2023-09-01T14:00:40.034Z,27.95
2023-09-01T14:03:07.608Z,27.80
2023-09-01T14:05:35.212Z,27.71
2023-09-01T14:08:04.314Z,28.55
2023-09-01T14:10:31.966Z,28.04
2023-09-01T14:12:59.551Z,28.53
2023-09-01T14:15:27.167Z,28.44
2023-09-01T14:17:54.724Z,26.98
2023-09-01T14:20:22.414Z,26.67
2023-09-01T14:22:49.981Z,26.54
2023-09-01T14:25:18.929Z,27.44
2023-09-01T14:27:46.487Z,27.63
2023-09-01T14:30:14.106Z,27.13
2023-09-01T14:32:41.753Z,26.17
2023-09-01T14:35:09.626Z,26.13
2023-09-01T14:37:37.226Z,25.63
2023-09-01T14:40:05.163Z,25.50
2023-09-01T14:42:34.100Z,25.23
2023-09-01T14:45:01.725Z,24.67
2023-09-01T14:47:29.290Z,24.11
2023-09-01T14:49:56.874Z,24.13
2023-09-01T14:52:24.479Z,24.38
2023-09-01T14:54:52.341Z,24.63
2023-09-01T14:57:19.900Z,24.11
2023-09-01T14:59:48.824Z,24.56
2023-09-01T15:02:16.385Z,24.63
2023-09-01T15:04:43.995Z,24.12
2023-09-01T22:45:47.342Z,19.66
